sensor_id;sensor_type;location;lat;lon;timestamp;temperature;humidity
17452;DHT22;8843;48.838;9.324;2022-08-07T00:02:26;24.50;52.00
17452;DHT22;8843;48.838;9.324;2022-08-07T00:04:54;24.50;52.30
17452;DHT22;8843;48.838;9.324;2022-08-07T00:07:21;24.50;52.00
17452;DHT22;8843;48.838;9.324;2022-08-07T00:09:48;24.50;52.40
17452;DHT22;8843;48.838;9.324;2022-08-07T00:12:15;24.50;52.30
17452;DHT22;8843;48.838;9.324;2022-08-07T00:14:42;24.50;52.10
17452;DHT22;8843;48.838;9.324;2022-08-07T00:17:09;24.50;52.50
17452;DHT22;8843;48.838;9.324;2022-08-07T00:19:36;24.40;52.10
17452;DHT22;8843;48.838;9.324;2022-08-07T00:22:04;24.50;52.40
17452;DHT22;8843;48.838;9.324;2022-08-07T00:24:31;24.40;52.00
17452;DHT22;8843;48.838;9.324;2022-08-07T00:26:58;24.40;52.20
17452;DHT22;8843;48.838;9.324;2022-08-07T00:29:25;24.40;52.30
17452;DHT22;8843;48.838;9.324;2022-08-07T00:31:53;24.40;52.30
17452;DHT22;8843;48.838;9.324;2022-08-07T00:34:21;24.40;52.20
17452;DHT22;8843;48.838;9.324;2022-08-07T00:36:48;24.40;52.00
17452;DHT22;8843;48.838;9.324;2022-08-07T00:39:16;24.40;53.20
17452;DHT22;8843;48.838;9.324;2022-08-07T00:41:48;24.40;52.40
17452;DHT22;8843;48.838;9.324;2022-08-07T00:44:15;24.40;52.60
17452;DHT22;8843;48.838;9.324;2022-08-07T00:46:42;24.40;52.40
17452;DHT22;8843;48.838;9.324;2022-08-07T00:49:09;24.40;52.50
17452;DHT22;8843;48.838;9.324;2022-08-07T00:51:36;24.40;52.60
17452;DHT22;8843;48.838;9.324;2022-08-07T00:54:03;24.40;52.30
17452;DHT22;8843;48.838;9.324;2022-08-07T00:56:32;24.30;52.40
17452;DHT22;8843;48.838;9.324;2022-08-07T00:58:59;24.30;52.50
17452;DHT22;8843;48.838;9.324;2022-08-07T01:01:27;24.30;52.30
17452;DHT22;8843;48.838;9.324;2022-08-07T01:03:54;24.30;53.20
17452;DHT22;8843;48.838;9.324;2022-08-07T01:06:21;24.30;52.20
17452;DHT22;8843;48.838;9.324;2022-08-07T01:08:48;24.30;52.30
17452;DHT22;8843;48.838;9.324;2022-08-07T01:11:16;24.30;52.30
17452;DHT22;8843;48.838;9.324;2022-08-07T01:13:44;24.30;52.60
17452;DHT22;8843;48.838;9.324;2022-08-07T01:16:12;24.30;52.30
17452;DHT22;8843;48.838;9.324;2022-08-07T01:18:39;24.30;52.30
17452;DHT22;8843;48.838;9.324;2022-08-07T01:21:10;24.30;52.30
17452;DHT22;8843;48.838;9.324;2022-08-07T01:23:40;24.30;52.30
17452;DHT22;8843;48.838;9.324;2022-08-07T01:26:07;24.30;52.40
17452;DHT22;8843;48.838;9.324;2022-08-07T01:28:35;24.30;52.20
17452;DHT22;8843;48.838;9.324;2022-08-07T01:31:02;24.30;52.30
17452;DHT22;8843;48.838;9.324;2022-08-07T01:33:30;24.30;52.30
17452;DHT22;8843;48.838;9.324;2022-08-07T01:35:57;24.20;52.10
17452;DHT22;8843;48.838;9.324;2022-08-07T01:38:28;24.20;52.20
17452;DHT22;8843;48.838;9.324;2022-08-07T01:40:58;24.20;52.10
17452;DHT22;8843;48.838;9.324;2022-08-07T01:43:27;24.20;52.10
17452;DHT22;8843;48.838;9.324;2022-08-07T01:45:56;24.20;52.00
17452;DHT22;8843;48.838;9.324;2022-08-07T01:48:24;24.20;52.10
17452;DHT22;8843;48.838;9.324;2022-08-07T01:50:53;24.20;52.20
17452;DHT22;8843;48.838;9.324;2022-08-07T01:53:22;24.20;52.10
17452;DHT22;8843;48.838;9.324;2022-08-07T01:55:55;24.20;52.30
17452;DHT22;8843;48.838;9.324;2022-08-07T01:58:27;24.20;52.10
17452;DHT22;8843;48.838;9.324;2022-08-07T02:00:59;24.20;52.00
17452;DHT22;8843;48.838;9.324;2022-08-07T02:03:29;24.20;52.20
17452;DHT22;8843;48.838;9.324;2022-08-07T02:06:02;24.10;51.80
17452;DHT22;8843;48.838;9.324;2022-08-07T02:08:33;24.10;51.70
17452;DHT22;8843;48.838;9.324;2022-08-07T02:11:04;24.10;52.10
17452;DHT22;8843;48.838;9.324;2022-08-07T02:13:32;24.10;52.10
17452;DHT22;8843;48.838;9.324;2022-08-07T02:16:02;24.10;52.00
17452;DHT22;8843;48.838;9.324;2022-08-07T02:18:32;24.10;51.80
17452;DHT22;8843;48.838;9.324;2022-08-07T02:21:01;24.10;52.10
17452;DHT22;8843;48.838;9.324;2022-08-07T02:23:30;24.10;52.00
17452;DHT22;8843;48.838;9.324;2022-08-07T02:25:58;24.10;52.30
17452;DHT22;8843;48.838;9.324;2022-08-07T02:28:28;24.10;52.20
17452;DHT22;8843;48.838;9.324;2022-08-07T02:30:58;24.10;52.00
17452;DHT22;8843;48.838;9.324;2022-08-07T02:33:28;24.10;52.40
17452;DHT22;8843;48.838;9.324;2022-08-07T02:35:55;24.10;52.30
17452;DHT22;8843;48.838;9.324;2022-08-07T02:38:26;24.10;52.10
17452;DHT22;8843;48.838;9.324;2022-08-07T02:40:55;24.00;52.60
17452;DHT22;8843;48.838;9.324;2022-08-07T02:43:23;24.00;52.30
17452;DHT22;8843;48.838;9.324;2022-08-07T02:45:53;24.00;52.10
17452;DHT22;8843;48.838;9.324;2022-08-07T02:48:22;24.00;52.40
17452;DHT22;8843;48.838;9.324;2022-08-07T02:50:53;24.00;52.60
17452;DHT22;8843;48.838;9.324;2022-08-07T02:53:23;24.00;52.30
17452;DHT22;8843;48.838;9.324;2022-08-07T02:55:52;24.00;52.30
17452;DHT22;8843;48.838;9.324;2022-08-07T02:58:21;24.00;52.40
17452;DHT22;8843;48.838;9.324;2022-08-07T03:00:51;24.00;52.60
17452;DHT22;8843;48.838;9.324;2022-08-07T03:03:20;24.00;52.30
17452;DHT22;8843;48.838;9.324;2022-08-07T03:05:50;24.00;52.60
17452;DHT22;8843;48.838;9.324;2022-08-07T03:08:19;24.00;52.90
17452;DHT22;8843;48.838;9.324;2022-08-07T03:10:47;24.00;52.40
17452;DHT22;8843;48.838;9.324;2022-08-07T03:13:15;23.90;52.60
17452;DHT22;8843;48.838;9.324;2022-08-07T03:15:43;23.90;52.50
17452;DHT22;8843;48.838;9.324;2022-08-07T03:18:11;23.90;52.50
17452;DHT22;8843;48.838;9.324;2022-08-07T03:20:40;23.90;52.60
17452;DHT22;8843;48.838;9.324;2022-08-07T03:23:07;23.90;52.70
17452;DHT22;8843;48.838;9.324;2022-08-07T03:25:36;23.90;52.60
17452;DHT22;8843;48.838;9.324;2022-08-07T03:28:03;23.90;52.50
17452;DHT22;8843;48.838;9.324;2022-08-07T03:30:31;23.90;52.50
17452;DHT22;8843;48.838;9.324;2022-08-07T03:32:59;23.90;52.60
17452;DHT22;8843;48.838;9.324;2022-08-07T03:35:28;23.80;52.70
17452;DHT22;8843;48.838;9.324;2022-08-07T03:37:58;23.90;52.60
17452;DHT22;8843;48.838;9.324;2022-08-07T03:40:27;23.90;52.60
17452;DHT22;8843;48.838;9.324;2022-08-07T03:42:55;23.80;52.60
17452;DHT22;8843;48.838;9.324;2022-08-07T03:45:24;23.90;52.60
17452;DHT22;8843;48.838;9.324;2022-08-07T03:47:52;23.80;52.80
17452;DHT22;8843;48.838;9.324;2022-08-07T03:50:20;23.80;52.50
17452;DHT22;8843;48.838;9.324;2022-08-07T03:52:51;23.80;52.60
17452;DHT22;8843;48.838;9.324;2022-08-07T03:55:19;23.80;52.60
17452;DHT22;8843;48.838;9.324;2022-08-07T03:57:47;23.80;53.20
17452;DHT22;8843;48.838;9.324;2022-08-07T04:00:16;23.80;52.80
17452;DHT22;8843;48.838;9.324;2022-08-07T04:02:44;23.80;52.70
17452;DHT22;8843;48.838;9.324;2022-08-07T04:05:11;23.80;52.50
17452;DHT22;8843;48.838;9.324;2022-08-07T04:07:43;23.80;52.60
17452;DHT22;8843;48.838;9.324;2022-08-07T04:10:11;23.70;52.80
17452;DHT22;8843;48.838;9.324;2022-08-07T04:12:39;23.80;52.80
17452;DHT22;8843;48.838;9.324;2022-08-07T04:15:08;23.70;52.80
17452;DHT22;8843;48.838;9.324;2022-08-07T04:17:36;23.70;52.50
17452;DHT22;8843;48.838;9.324;2022-08-07T04:20:05;23.70;52.80
17452;DHT22;8843;48.838;9.324;2022-08-07T04:22:34;23.70;52.70
17452;DHT22;8843;48.838;9.324;2022-08-07T04:25:02;23.70;52.80
17452;DHT22;8843;48.838;9.324;2022-08-07T04:27:29;23.70;52.90
17452;DHT22;8843;48.838;9.324;2022-08-07T04:29:57;23.70;52.80
17452;DHT22;8843;48.838;9.324;2022-08-07T04:32:24;23.70;52.80
17452;DHT22;8843;48.838;9.324;2022-08-07T04:34:52;23.70;52.80
17452;DHT22;8843;48.838;9.324;2022-08-07T04:37:19;23.70;52.80
17452;DHT22;8843;48.838;9.324;2022-08-07T04:39:46;23.60;53.40
17452;DHT22;8843;48.838;9.324;2022-08-07T04:42:13;23.60;52.80
17452;DHT22;8843;48.838;9.324;2022-08-07T04:44:40;23.60;52.70
17452;DHT22;8843;48.838;9.324;2022-08-07T04:47:12;23.60;52.80
17452;DHT22;8843;48.838;9.324;2022-08-07T04:49:44;23.60;52.80
17452;DHT22;8843;48.838;9.324;2022-08-07T04:52:17;23.60;52.80
17452;DHT22;8843;48.838;9.324;2022-08-07T04:54:54;23.60;53.50
17452;DHT22;8843;48.838;9.324;2022-08-07T04:57:26;23.60;52.70
17452;DHT22;8843;48.838;9.324;2022-08-07T04:59:56;23.60;52.80
17452;DHT22;8843;48.838;9.324;2022-08-07T05:02:29;23.60;52.90
17452;DHT22;8843;48.838;9.324;2022-08-07T05:05:02;23.60;52.90
17452;DHT22;8843;48.838;9.324;2022-08-07T05:07:35;23.60;52.80
17452;DHT22;8843;48.838;9.324;2022-08-07T05:10:07;23.60;52.90
17452;DHT22;8843;48.838;9.324;2022-08-07T05:12:38;23.60;52.90
17452;DHT22;8843;48.838;9.324;2022-08-07T05:15:08;23.60;52.90
17452;DHT22;8843;48.838;9.324;2022-08-07T05:17:45;23.60;52.90
17452;DHT22;8843;48.838;9.324;2022-08-07T05:20:16;23.50;52.90
17452;DHT22;8843;48.838;9.324;2022-08-07T05:22:45;23.60;53.00
17452;DHT22;8843;48.838;9.324;2022-08-07T05:25:15;23.50;52.90
17452;DHT22;8843;48.838;9.324;2022-08-07T05:27:45;23.60;52.90
17452;DHT22;8843;48.838;9.324;2022-08-07T05:30:14;23.50;52.90
17452;DHT22;8843;48.838;9.324;2022-08-07T05:32:41;23.50;52.90
17452;DHT22;8843;48.838;9.324;2022-08-07T05:35:13;23.50;52.90
17452;DHT22;8843;48.838;9.324;2022-08-07T05:37:43;23.50;52.90
17452;DHT22;8843;48.838;9.324;2022-08-07T05:40:12;23.50;52.90
17452;DHT22;8843;48.838;9.324;2022-08-07T05:42:39;23.50;53.00
17452;DHT22;8843;48.838;9.324;2022-08-07T05:45:07;23.50;53.00
17452;DHT22;8843;48.838;9.324;2022-08-07T05:47:35;23.50;53.00
17452;DHT22;8843;48.838;9.324;2022-08-07T05:50:02;23.50;53.00
17452;DHT22;8843;48.838;9.324;2022-08-07T05:52:31;23.50;53.00
17452;DHT22;8843;48.838;9.324;2022-08-07T05:54:58;23.50;53.10
17452;DHT22;8843;48.838;9.324;2022-08-07T05:57:27;23.50;53.10
17452;DHT22;8843;48.838;9.324;2022-08-07T05:59:56;23.50;53.20
17452;DHT22;8843;48.838;9.324;2022-08-07T06:02:25;23.50;53.10
17452;DHT22;8843;48.838;9.324;2022-08-07T06:04:56;23.40;53.10
17452;DHT22;8843;48.838;9.324;2022-08-07T06:07:25;23.40;53.10
17452;DHT22;8843;48.838;9.324;2022-08-07T06:09:55;23.40;53.10
17452;DHT22;8843;48.838;9.324;2022-08-07T06:12:22;23.40;53.20
17452;DHT22;8843;48.838;9.324;2022-08-07T06:14:49;23.40;53.20
17452;DHT22;8843;48.838;9.324;2022-08-07T06:17:17;23.40;53.30
17452;DHT22;8843;48.838;9.324;2022-08-07T06:19:46;23.40;53.20
17452;DHT22;8843;48.838;9.324;2022-08-07T06:22:14;23.40;52.50
17452;DHT22;8843;48.838;9.324;2022-08-07T06:24:42;23.30;53.60
17452;DHT22;8843;48.838;9.324;2022-08-07T06:27:19;23.40;53.60
17452;DHT22;8843;48.838;9.324;2022-08-07T06:29:46;23.30;53.50
17452;DHT22;8843;48.838;9.324;2022-08-07T06:32:13;23.30;53.50
17452;DHT22;8843;48.838;9.324;2022-08-07T06:34:40;23.40;54.20
17452;DHT22;8843;48.838;9.324;2022-08-07T06:37:07;23.40;53.70
17452;DHT22;8843;48.838;9.324;2022-08-07T06:39:34;23.40;53.50
17452;DHT22;8843;48.838;9.324;2022-08-07T06:42:03;23.30;53.50
17452;DHT22;8843;48.838;9.324;2022-08-07T06:44:34;23.40;53.60
17452;DHT22;8843;48.838;9.324;2022-08-07T06:47:01;23.30;53.50
17452;DHT22;8843;48.838;9.324;2022-08-07T06:51:57;23.30;53.90
17452;DHT22;8843;48.838;9.324;2022-08-07T06:54:25;23.40;53.70
17452;DHT22;8843;48.838;9.324;2022-08-07T06:56:53;23.30;53.70
17452;DHT22;8843;48.838;9.324;2022-08-07T06:59:23;23.30;53.80
17452;DHT22;8843;48.838;9.324;2022-08-07T07:01:53;23.40;54.50
17452;DHT22;8843;48.838;9.324;2022-08-07T07:04:22;23.30;53.80
17452;DHT22;8843;48.838;9.324;2022-08-07T07:06:50;23.30;53.90
17452;DHT22;8843;48.838;9.324;2022-08-07T07:09:23;23.30;54.10
17452;DHT22;8843;48.838;9.324;2022-08-07T07:12:00;23.30;53.00
17452;DHT22;8843;48.838;9.324;2022-08-07T07:14:34;22.90;52.30
17452;DHT22;8843;48.838;9.324;2022-08-07T07:17:07;22.80;54.30
17452;DHT22;8843;48.838;9.324;2022-08-07T07:19:40;23.10;55.00
17452;DHT22;8843;48.838;9.324;2022-08-07T07:22:09;23.20;55.00
17452;DHT22;8843;48.838;9.324;2022-08-07T07:24:37;23.20;54.80
17452;DHT22;8843;48.838;9.324;2022-08-07T07:27:05;23.20;54.00
17452;DHT22;8843;48.838;9.324;2022-08-07T07:29:35;23.00;52.90
17452;DHT22;8843;48.838;9.324;2022-08-07T07:32:08;22.90;55.60
17452;DHT22;8843;48.838;9.324;2022-08-07T07:34:41;22.80;54.50
17452;DHT22;8843;48.838;9.324;2022-08-07T07:37:10;22.80;55.40
17452;DHT22;8843;48.838;9.324;2022-08-07T07:39:38;22.90;55.00
17452;DHT22;8843;48.838;9.324;2022-08-07T07:42:08;22.90;55.30
17452;DHT22;8843;48.838;9.324;2022-08-07T07:44:37;23.00;54.50
17452;DHT22;8843;48.838;9.324;2022-08-07T07:47:08;23.10;54.90
17452;DHT22;8843;48.838;9.324;2022-08-07T07:49:36;23.10;53.90
17452;DHT22;8843;48.838;9.324;2022-08-07T07:52:04;23.30;54.90
17452;DHT22;8843;48.838;9.324;2022-08-07T07:54:32;23.30;54.60
17452;DHT22;8843;48.838;9.324;2022-08-07T07:57:00;23.40;53.80
17452;DHT22;8843;48.838;9.324;2022-08-07T07:59:29;23.40;53.80
17452;DHT22;8843;48.838;9.324;2022-08-07T08:01:58;23.50;52.80
17452;DHT22;8843;48.838;9.324;2022-08-07T08:04:28;23.60;53.40
17452;DHT22;8843;48.838;9.324;2022-08-07T08:06:56;23.70;54.10
17452;DHT22;8843;48.838;9.324;2022-08-07T08:09:25;23.60;53.40
17452;DHT22;8843;48.838;9.324;2022-08-07T08:11:53;23.70;52.70
17452;DHT22;8843;48.838;9.324;2022-08-07T08:14:20;23.80;53.00
17452;DHT22;8843;48.838;9.324;2022-08-07T08:16:50;23.80;52.80
17452;DHT22;8843;48.838;9.324;2022-08-07T08:19:22;23.90;51.70
17452;DHT22;8843;48.838;9.324;2022-08-07T08:21:52;23.90;51.60
17452;DHT22;8843;48.838;9.324;2022-08-07T08:24:38;24.00;52.40
17452;DHT22;8843;48.838;9.324;2022-08-07T08:27:27;23.90;51.30
17452;DHT22;8843;48.838;9.324;2022-08-07T08:29:57;24.10;51.30
17452;DHT22;8843;48.838;9.324;2022-08-07T08:32:28;24.00;51.10
17452;DHT22;8843;48.838;9.324;2022-08-07T08:34:58;24.10;50.30
17452;DHT22;8843;48.838;9.324;2022-08-07T08:37:29;24.10;49.40
17452;DHT22;8843;48.838;9.324;2022-08-07T08:39:58;24.20;49.00
17452;DHT22;8843;48.838;9.324;2022-08-07T08:42:29;24.20;50.70
17452;DHT22;8843;48.838;9.324;2022-08-07T08:45:02;24.10;51.30
17452;DHT22;8843;48.838;9.324;2022-08-07T08:47:39;23.90;51.30
17452;DHT22;8843;48.838;9.324;2022-08-07T08:50:11;23.80;51.60
17452;DHT22;8843;48.838;9.324;2022-08-07T08:52:47;23.80;50.80
17452;DHT22;8843;48.838;9.324;2022-08-07T08:55:29;23.80;50.60
17452;DHT22;8843;48.838;9.324;2022-08-07T08:58:02;23.80;51.20
17452;DHT22;8843;48.838;9.324;2022-08-07T09:00:38;24.00;51.40
17452;DHT22;8843;48.838;9.324;2022-08-07T09:03:14;24.00;52.20
17452;DHT22;8843;48.838;9.324;2022-08-07T09:05:50;24.00;50.20
17452;DHT22;8843;48.838;9.324;2022-08-07T09:08:28;24.10;49.30
17452;DHT22;8843;48.838;9.324;2022-08-07T09:11:16;24.00;51.80
17452;DHT22;8843;48.838;9.324;2022-08-07T09:14:00;24.00;51.80
17452;DHT22;8843;48.838;9.324;2022-08-07T09:16:39;24.00;51.40
17452;DHT22;8843;48.838;9.324;2022-08-07T09:19:23;24.10;51.30
17452;DHT22;8843;48.838;9.324;2022-08-07T09:22:05;24.00;52.20
17452;DHT22;8843;48.838;9.324;2022-08-07T09:24:45;24.20;49.80
17452;DHT22;8843;48.838;9.324;2022-08-07T09:27:23;24.30;51.00
17452;DHT22;8843;48.838;9.324;2022-08-07T09:29:56;24.30;50.30
17452;DHT22;8843;48.838;9.324;2022-08-07T09:32:35;24.50;50.00
17452;DHT22;8843;48.838;9.324;2022-08-07T09:35:20;24.50;49.80
17452;DHT22;8843;48.838;9.324;2022-08-07T09:37:58;24.50;49.70
17452;DHT22;8843;48.838;9.324;2022-08-07T09:40:36;24.60;49.10
17452;DHT22;8843;48.838;9.324;2022-08-07T09:43:13;24.60;49.70
17452;DHT22;8843;48.838;9.324;2022-08-07T09:45:53;24.70;48.20
17452;DHT22;8843;48.838;9.324;2022-08-07T09:48:35;24.80;48.50
17452;DHT22;8843;48.838;9.324;2022-08-07T09:51:24;25.10;43.60
17452;DHT22;8843;48.838;9.324;2022-08-07T09:53:58;25.90;40.90
17452;DHT22;8843;48.838;9.324;2022-08-07T09:56:45;26.20;43.10
17452;DHT22;8843;48.838;9.324;2022-08-07T09:59:36;25.50;46.70
17452;DHT22;8843;48.838;9.324;2022-08-07T10:02:19;25.90;44.50
17452;DHT22;8843;48.838;9.324;2022-08-07T10:05:15;25.90;45.30
17452;DHT22;8843;48.838;9.324;2022-08-07T10:08:08;25.80;45.50
17452;DHT22;8843;48.838;9.324;2022-08-07T10:10:44;26.20;42.20
17452;DHT22;8843;48.838;9.324;2022-08-07T10:13:27;26.10;43.80
17452;DHT22;8843;48.838;9.324;2022-08-07T10:16:08;26.20;46.40
17452;DHT22;8843;48.838;9.324;2022-08-07T10:18:54;26.00;45.40
17452;DHT22;8843;48.838;9.324;2022-08-07T10:21:32;26.20;47.20
17452;DHT22;8843;48.838;9.324;2022-08-07T10:24:28;26.30;43.90
17452;DHT22;8843;48.838;9.324;2022-08-07T10:27:08;26.00;46.30
17452;DHT22;8843;48.838;9.324;2022-08-07T10:29:51;26.20;45.40
17452;DHT22;8843;48.838;9.324;2022-08-07T10:32:53;26.40;45.50
17452;DHT22;8843;48.838;9.324;2022-08-07T10:35:28;26.50;45.00
17452;DHT22;8843;48.838;9.324;2022-08-07T10:38:05;26.40;45.90
17452;DHT22;8843;48.838;9.324;2022-08-07T10:40:44;26.70;43.90
17452;DHT22;8843;48.838;9.324;2022-08-07T10:43:16;26.80;45.20
17452;DHT22;8843;48.838;9.324;2022-08-07T10:45:48;27.00;44.20
17452;DHT22;8843;48.838;9.324;2022-08-07T10:48:29;27.30;43.60
17452;DHT22;8843;48.838;9.324;2022-08-07T10:51:04;27.60;44.00
17452;DHT22;8843;48.838;9.324;2022-08-07T10:53:40;27.70;42.20
17452;DHT22;8843;48.838;9.324;2022-08-07T10:56:14;28.00;41.10
17452;DHT22;8843;48.838;9.324;2022-08-07T10:58:54;27.70;41.70
17452;DHT22;8843;48.838;9.324;2022-08-07T11:01:36;27.80;42.20
17452;DHT22;8843;48.838;9.324;2022-08-07T11:04:11;28.00;39.70
17452;DHT22;8843;48.838;9.324;2022-08-07T11:06:47;27.80;43.10
17452;DHT22;8843;48.838;9.324;2022-08-07T11:09:19;28.30;41.20
17452;DHT22;8843;48.838;9.324;2022-08-07T11:11:55;28.50;40.70
17452;DHT22;8843;48.838;9.324;2022-08-07T11:14:27;28.40;42.50
17452;DHT22;8843;48.838;9.324;2022-08-07T11:17:02;28.50;41.40
17452;DHT22;8843;48.838;9.324;2022-08-07T11:19:37;28.50;40.20
17452;DHT22;8843;48.838;9.324;2022-08-07T11:22:08;28.30;41.90
17452;DHT22;8843;48.838;9.324;2022-08-07T11:24:44;28.00;42.10
17452;DHT22;8843;48.838;9.324;2022-08-07T11:27:20;28.20;42.70
17452;DHT22;8843;48.838;9.324;2022-08-07T11:29:53;28.40;41.20
17452;DHT22;8843;48.838;9.324;2022-08-07T11:32:34;28.50;42.10
17452;DHT22;8843;48.838;9.324;2022-08-07T11:35:06;28.50;40.60
17452;DHT22;8843;48.838;9.324;2022-08-07T11:37:57;28.70;40.30
17452;DHT22;8843;48.838;9.324;2022-08-07T11:40:35;28.80;38.40
17452;DHT22;8843;48.838;9.324;2022-08-07T11:43:11;29.00;41.60
17452;DHT22;8843;48.838;9.324;2022-08-07T11:46:08;28.80;41.30
17452;DHT22;8843;48.838;9.324;2022-08-07T11:48:59;28.80;40.80
17452;DHT22;8843;48.838;9.324;2022-08-07T11:51:37;29.20;39.70
17452;DHT22;8843;48.838;9.324;2022-08-07T11:54:37;28.90;42.10
17452;DHT22;8843;48.838;9.324;2022-08-07T11:57:18;28.80;39.10
17452;DHT22;8843;48.838;9.324;2022-08-07T12:00:05;29.00;39.70
17452;DHT22;8843;48.838;9.324;2022-08-07T12:02:46;28.90;39.40
17452;DHT22;8843;48.838;9.324;2022-08-07T12:05:27;28.90;40.40
17452;DHT22;8843;48.838;9.324;2022-08-07T12:07:59;29.10;40.90
17452;DHT22;8843;48.838;9.324;2022-08-07T12:10:33;29.00;38.10
17452;DHT22;8843;48.838;9.324;2022-08-07T12:13:04;29.40;38.00
17452;DHT22;8843;48.838;9.324;2022-08-07T12:15:37;29.20;40.60
17452;DHT22;8843;48.838;9.324;2022-08-07T12:18:12;29.10;40.30
17452;DHT22;8843;48.838;9.324;2022-08-07T12:20:46;29.00;38.90
17452;DHT22;8843;48.838;9.324;2022-08-07T12:23:34;29.00;38.60
17452;DHT22;8843;48.838;9.324;2022-08-07T12:26:08;29.30;38.10
17452;DHT22;8843;48.838;9.324;2022-08-07T12:28:50;29.40;39.60
17452;DHT22;8843;48.838;9.324;2022-08-07T12:31:23;29.10;39.20
17452;DHT22;8843;48.838;9.324;2022-08-07T12:33:52;28.90;37.70
17452;DHT22;8843;48.838;9.324;2022-08-07T12:36:22;29.20;38.70
17452;DHT22;8843;48.838;9.324;2022-08-07T12:38:50;29.50;38.10
17452;DHT22;8843;48.838;9.324;2022-08-07T12:41:19;29.30;38.60
17452;DHT22;8843;48.838;9.324;2022-08-07T12:43:47;29.80;37.60
17452;DHT22;8843;48.838;9.324;2022-08-07T12:46:25;29.40;37.90
17452;DHT22;8843;48.838;9.324;2022-08-07T12:48:59;29.50;39.20
17452;DHT22;8843;48.838;9.324;2022-08-07T12:51:45;29.80;36.80
17452;DHT22;8843;48.838;9.324;2022-08-07T12:54:22;29.30;39.00
17452;DHT22;8843;48.838;9.324;2022-08-07T12:56:53;29.40;37.90
17452;DHT22;8843;48.838;9.324;2022-08-07T12:59:24;29.10;37.80
17452;DHT22;8843;48.838;9.324;2022-08-07T13:02:01;29.60;37.00
17452;DHT22;8843;48.838;9.324;2022-08-07T13:04:47;29.90;35.90
17452;DHT22;8843;48.838;9.324;2022-08-07T13:07:32;29.80;37.70
17452;DHT22;8843;48.838;9.324;2022-08-07T13:10:13;29.60;37.70
17452;DHT22;8843;48.838;9.324;2022-08-07T13:12:55;29.40;38.40
17452;DHT22;8843;48.838;9.324;2022-08-07T13:15:33;29.40;37.40
17452;DHT22;8843;48.838;9.324;2022-08-07T13:18:15;28.80;40.80
17452;DHT22;8843;48.838;9.324;2022-08-07T13:20:46;29.50;36.80
17452;DHT22;8843;48.838;9.324;2022-08-07T13:23:23;29.50;39.70
17452;DHT22;8843;48.838;9.324;2022-08-07T13:25:54;29.40;39.30
17452;DHT22;8843;48.838;9.324;2022-08-07T13:28:27;29.90;38.10
17452;DHT22;8843;48.838;9.324;2022-08-07T13:31:02;30.10;36.50
17452;DHT22;8843;48.838;9.324;2022-08-07T13:33:35;30.10;37.00
17452;DHT22;8843;48.838;9.324;2022-08-07T13:36:07;30.00;37.80
17452;DHT22;8843;48.838;9.324;2022-08-07T13:38:43;29.90;36.50
17452;DHT22;8843;48.838;9.324;2022-08-07T13:41:20;30.30;36.20
17452;DHT22;8843;48.838;9.324;2022-08-07T13:43:53;30.30;35.20
17452;DHT22;8843;48.838;9.324;2022-08-07T13:46:21;30.20;38.00
17452;DHT22;8843;48.838;9.324;2022-08-07T13:48:56;30.00;37.70
17452;DHT22;8843;48.838;9.324;2022-08-07T13:51:24;29.60;37.20
17452;DHT22;8843;48.838;9.324;2022-08-07T13:53:57;29.80;36.90
17452;DHT22;8843;48.838;9.324;2022-08-07T13:56:25;29.90;36.30
17452;DHT22;8843;48.838;9.324;2022-08-07T13:58:55;29.80;36.70
17452;DHT22;8843;48.838;9.324;2022-08-07T14:01:29;29.50;38.50
17452;DHT22;8843;48.838;9.324;2022-08-07T14:03:57;29.80;37.30
17452;DHT22;8843;48.838;9.324;2022-08-07T14:06:30;30.00;37.90
17452;DHT22;8843;48.838;9.324;2022-08-07T14:09:00;30.00;36.00
17452;DHT22;8843;48.838;9.324;2022-08-07T14:11:29;29.80;36.60
17452;DHT22;8843;48.838;9.324;2022-08-07T14:14:02;29.40;37.50
17452;DHT22;8843;48.838;9.324;2022-08-07T14:16:33;29.40;37.00
17452;DHT22;8843;48.838;9.324;2022-08-07T14:19:02;29.60;34.40
17452;DHT22;8843;48.838;9.324;2022-08-07T14:21:33;29.80;35.40
17452;DHT22;8843;48.838;9.324;2022-08-07T14:24:05;29.50;37.60
17452;DHT22;8843;48.838;9.324;2022-08-07T14:26:37;29.80;35.20
17452;DHT22;8843;48.838;9.324;2022-08-07T14:29:08;29.70;36.40
17452;DHT22;8843;48.838;9.324;2022-08-07T14:31:36;29.70;36.10
17452;DHT22;8843;48.838;9.324;2022-08-07T14:34:04;29.40;37.70
17452;DHT22;8843;48.838;9.324;2022-08-07T14:36:32;29.50;37.60
17452;DHT22;8843;48.838;9.324;2022-08-07T14:39:00;29.40;38.10
17452;DHT22;8843;48.838;9.324;2022-08-07T14:41:30;29.40;36.70
17452;DHT22;8843;48.838;9.324;2022-08-07T14:44:00;29.30;34.10
17452;DHT22;8843;48.838;9.324;2022-08-07T14:46:30;29.40;36.50
17452;DHT22;8843;48.838;9.324;2022-08-07T14:48:58;29.50;35.70
17452;DHT22;8843;48.838;9.324;2022-08-07T14:51:27;29.40;38.30
17452;DHT22;8843;48.838;9.324;2022-08-07T14:53:57;29.10;36.60
17452;DHT22;8843;48.838;9.324;2022-08-07T14:56:29;29.00;36.00
17452;DHT22;8843;48.838;9.324;2022-08-07T14:59:00;29.00;37.30
17452;DHT22;8843;48.838;9.324;2022-08-07T15:01:31;29.30;37.00
17452;DHT22;8843;48.838;9.324;2022-08-07T15:04:01;29.30;37.00
17452;DHT22;8843;48.838;9.324;2022-08-07T15:06:31;29.00;36.80
17452;DHT22;8843;48.838;9.324;2022-08-07T15:09:02;29.30;36.10
17452;DHT22;8843;48.838;9.324;2022-08-07T15:11:34;29.30;35.40
17452;DHT22;8843;48.838;9.324;2022-08-07T15:14:04;29.40;36.10
17452;DHT22;8843;48.838;9.324;2022-08-07T15:16:36;29.30;35.80
17452;DHT22;8843;48.838;9.324;2022-08-07T15:19:06;29.10;36.50
17452;DHT22;8843;48.838;9.324;2022-08-07T15:21:36;29.00;36.80
17452;DHT22;8843;48.838;9.324;2022-08-07T15:24:09;29.10;38.90
17452;DHT22;8843;48.838;9.324;2022-08-07T15:26:43;28.90;36.90
17452;DHT22;8843;48.838;9.324;2022-08-07T15:29:13;29.20;35.80
17452;DHT22;8843;48.838;9.324;2022-08-07T15:31:41;29.10;36.90
17452;DHT22;8843;48.838;9.324;2022-08-07T15:34:10;29.20;36.20
17452;DHT22;8843;48.838;9.324;2022-08-07T15:36:37;28.80;40.70
17452;DHT22;8843;48.838;9.324;2022-08-07T15:39:08;28.70;37.80
17452;DHT22;8843;48.838;9.324;2022-08-07T15:44:21;28.80;37.60
17452;DHT22;8843;48.838;9.324;2022-08-07T15:46:55;28.90;36.90
17452;DHT22;8843;48.838;9.324;2022-08-07T15:49:27;28.50;39.90
17452;DHT22;8843;48.838;9.324;2022-08-07T15:51:55;28.40;38.00
17452;DHT22;8843;48.838;9.324;2022-08-07T15:54:24;28.40;38.30
17452;DHT22;8843;48.838;9.324;2022-08-07T15:56:57;28.30;38.30
17452;DHT22;8843;48.838;9.324;2022-08-07T15:59:26;28.40;37.70
17452;DHT22;8843;48.838;9.324;2022-08-07T16:01:55;28.40;37.90
17452;DHT22;8843;48.838;9.324;2022-08-07T16:04:26;28.50;37.10
17452;DHT22;8843;48.838;9.324;2022-08-07T16:06:56;28.60;36.30
17452;DHT22;8843;48.838;9.324;2022-08-07T16:09:31;28.60;37.50
17452;DHT22;8843;48.838;9.324;2022-08-07T16:12:12;28.30;39.40
17452;DHT22;8843;48.838;9.324;2022-08-07T16:14:56;28.10;37.90
17452;DHT22;8843;48.838;9.324;2022-08-07T16:17:38;28.00;41.00
17452;DHT22;8843;48.838;9.324;2022-08-07T16:20:28;27.70;39.80
17452;DHT22;8843;48.838;9.324;2022-08-07T16:23:04;27.90;39.10